createdAt,value
2023-07-10T00:01:49.233Z,101439.81
2023-07-10T00:04:17.899Z,101436.22
2023-07-10T00:06:45.876Z,101432.91
2023-07-10T00:09:15.243Z,101439.81
2023-07-10T00:11:43.220Z,101439.81
2023-07-10T00:14:19.120Z,101435.41
2023-07-10T00:16:47.200Z,101435.41
2023-07-10T00:19:15.644Z,101437.06
2023-07-10T00:21:43.707Z,101406.75
2023-07-10T00:24:11.685Z,101440.66
2023-07-10T00:26:41.247Z,101440.66
2023-07-10T00:29:15.989Z,101440.03
2023-07-10T00:31:44.025Z,101453.25
2023-07-10T00:34:14.873Z,101454.31
2023-07-10T00:36:43.109Z,101445.28
2023-07-10T00:39:20.229Z,101455.16
2023-07-10T00:41:50.636Z,101460.59
2023-07-10T00:44:18.945Z,101465.22
2023-07-10T00:46:50.247Z,101461.66
2023-07-10T00:49:20.194Z,101454.31
2023-07-10T00:51:53.219Z,101416.03
2023-07-10T00:54:24.660Z,101453.47
2023-07-10T00:56:54.714Z,101445.06
2023-07-10T00:59:23.505Z,101462.50
2023-07-10T01:02:19.980Z,101448.00
2023-07-10T01:04:54.034Z,101434.22
2023-07-10T01:07:23.925Z,101431.34
2023-07-10T01:09:52.679Z,101456.19
2023-07-10T01:12:22.106Z,101412.94
2023-07-10T01:14:50.356Z,101463.56
2023-07-10T01:17:18.344Z,101454.78
2023-07-10T01:19:47.167Z,101442.22
2023-07-10T01:22:16.614Z,101454.53
2023-07-10T01:24:44.910Z,101455.38
2023-07-10T01:27:14.560Z,101453.69
2023-07-10T01:29:44.386Z,101442.84
2023-07-10T01:32:13.322Z,101458.09
2023-07-10T01:34:42.728Z,101457.25
2023-07-10T01:37:10.728Z,101452.63
2023-07-10T01:39:41.583Z,101431.13
2023-07-10T01:42:09.658Z,101462.50
2023-07-10T01:44:39.029Z,101390.00
2023-07-10T01:47:08.633Z,101458.94
2023-07-10T01:49:39.771Z,101429.69
2023-07-10T01:52:09.355Z,101466.28
2023-07-10T01:54:37.771Z,101464.41
2023-07-10T01:57:08.008Z,101460.81
2023-07-10T01:59:35.936Z,101464.41
2023-07-10T02:02:04.020Z,101463.56
2023-07-10T02:04:32.353Z,101458.94
2023-07-10T02:07:00.328Z,101463.56
2023-07-10T02:09:29.525Z,101469.03
2023-07-10T02:11:57.950Z,101472.59
2023-07-10T02:14:27.605Z,101468.19
2023-07-10T02:16:55.675Z,101466.53
2023-07-10T02:19:23.687Z,101486.25
2023-07-10T02:21:51.904Z,101490.88
2023-07-10T02:24:20.124Z,101453.09
2023-07-10T02:26:48.129Z,101513.59
2023-07-10T02:29:16.124Z,101513.59
2023-07-10T02:31:45.521Z,101516.31
2023-07-10T02:34:14.249Z,101507.28
2023-07-10T02:36:42.206Z,101508.13
2023-07-10T02:39:10.225Z,101498.03
2023-07-10T02:41:38.230Z,101501.81
2023-07-10T02:44:06.558Z,101509.16
2023-07-10T02:46:34.742Z,101499.06
2023-07-10T02:49:04.265Z,101505.38
2023-07-10T02:51:32.430Z,101508.34
2023-07-10T02:54:00.660Z,101520.09
2023-07-10T02:56:28.692Z,101526.41
2023-07-10T02:58:56.634Z,101520.09
2023-07-10T03:01:27.500Z,101534.59
2023-07-10T03:03:55.922Z,101529.13
2023-07-10T03:06:25.859Z,101532.72
2023-07-10T03:08:53.832Z,101534.59
2023-07-10T03:11:23.056Z,101533.75
2023-07-10T03:13:51.377Z,101532.72
2023-07-10T03:16:19.422Z,101535.44
2023-07-10T03:18:47.402Z,101529.97
2023-07-10T03:21:15.326Z,101532.72
2023-07-10T03:23:46.602Z,101533.75
2023-07-10T03:26:14.579Z,101539.00
2023-07-10T03:28:42.631Z,101518.22
2023-07-10T03:31:10.739Z,101511.91
2023-07-10T03:33:39.098Z,101509.41
2023-07-10T03:36:08.858Z,101511.91
2023-07-10T03:38:37.260Z,101508.34
2023-07-10T03:41:06.782Z,101447.06
2023-07-10T03:43:35.024Z,101515.47
2023-07-10T03:46:03.295Z,101521.78
2023-07-10T03:48:31.593Z,101522.84
2023-07-10T03:50:59.787Z,101502.47
2023-07-10T03:53:29.205Z,101502.88
2023-07-10T03:55:57.756Z,101505.59
2023-07-10T03:58:29.346Z,101515.72
2023-07-10T04:01:00.268Z,101512.16
2023-07-10T04:03:30.385Z,101527.47
2023-07-10T04:05:59.447Z,101534.59
2023-07-10T04:08:29.625Z,101537.34
2023-07-10T04:10:58.572Z,101466.38
2023-07-10T04:13:28.258Z,101536.50
2023-07-10T04:16:06.515Z,101545.53
2023-07-10T04:18:35.372Z,101528.59
2023-07-10T04:21:04.599Z,101551.00
2023-07-10T04:23:32.859Z,101556.47
2023-07-10T04:26:00.850Z,101551.84
2023-07-10T04:28:30.210Z,101565.50
2023-07-10T04:30:58.312Z,101507.13
2023-07-10T04:33:27.480Z,101570.97
2023-07-10T04:35:56.337Z,101568.22
2023-07-10T04:38:24.812Z,101570.13
2023-07-10T04:40:56.648Z,101571.81
2023-07-10T04:43:25.956Z,101555.53
2023-07-10T04:45:56.178Z,101583.78
2023-07-10T04:48:24.382Z,101574.75
2023-07-10T04:50:53.611Z,101574.75
2023-07-10T04:53:22.041Z,101575.59
2023-07-10T04:55:50.338Z,101585.69
2023-07-10T04:58:18.424Z,101585.69
2023-07-10T05:00:46.404Z,101588.66
2023-07-10T05:03:15.860Z,101591.16
2023-07-10T05:05:54.866Z,101601.22
2023-07-10T05:08:26.456Z,101599.34
2023-07-10T05:10:55.598Z,101603.97
2023-07-10T05:13:25.929Z,101603.97
2023-07-10T05:15:54.352Z,101604.81
2023-07-10T05:18:23.714Z,101610.28
2023-07-10T05:20:53.919Z,101617.63
2023-07-10T05:23:22.317Z,101495.63
2023-07-10T05:25:58.001Z,101616.81
2023-07-10T05:28:26.112Z,101617.63
2023-07-10T05:30:54.118Z,101614.09
2023-07-10T05:33:23.830Z,101618.72
2023-07-10T05:35:53.072Z,101624.19
2023-07-10T05:38:24.006Z,101619.56
2023-07-10T05:40:51.956Z,101619.56
2023-07-10T05:43:19.948Z,101625.03
2023-07-10T05:45:48.483Z,101622.03
2023-07-10T05:48:18.242Z,101620.38
2023-07-10T05:50:48.607Z,101620.38
2023-07-10T05:53:16.828Z,101621.44
2023-07-10T05:55:45.642Z,101623.09
2023-07-10T05:58:13.665Z,101627.75
2023-07-10T06:00:42.529Z,101625.03
2023-07-10T06:03:11.624Z,101628.56
2023-07-10T06:05:39.698Z,101621.03
2023-07-10T06:08:09.642Z,101628.56
2023-07-10T06:10:37.610Z,101624.19
2023-07-10T06:13:05.952Z,101608.03
2023-07-10T06:15:33.931Z,101620.38
2023-07-10T06:18:01.985Z,101620.59
2023-07-10T06:20:29.956Z,101633.22
2023-07-10T06:22:57.943Z,101626.91
2023-07-10T06:25:27.543Z,101625.81
2023-07-10T06:27:55.571Z,101637.84
2023-07-10T06:30:23.702Z,101635.94
2023-07-10T06:32:51.657Z,101640.56
2023-07-10T06:35:19.962Z,101636.38
2023-07-10T06:37:47.907Z,101642.22
2023-07-10T06:40:16.989Z,101646.88
2023-07-10T06:42:46.383Z,101656.97
2023-07-10T06:45:14.633Z,101666.00
2023-07-10T06:47:43.203Z,101660.75
2023-07-10T06:50:12.360Z,101671.47
2023-07-10T06:52:40.608Z,101670.63
2023-07-10T06:55:09.748Z,101675.25
2023-07-10T06:57:37.733Z,101667.06
2023-07-10T07:00:10.549Z,101643.19
2023-07-10T07:02:38.638Z,101643.81
2023-07-10T07:05:08.946Z,101678.00
2023-07-10T07:07:37.474Z,101683.44
2023-07-10T07:10:06.454Z,101684.28
2023-07-10T07:12:34.475Z,101666.44
2023-07-10T07:15:02.676Z,101678.19
2023-07-10T07:17:32.152Z,101673.38
2023-07-10T07:20:00.127Z,101654.94
2023-07-10T07:22:28.659Z,101672.53
2023-07-10T07:24:56.917Z,101675.25
2023-07-10T07:27:24.929Z,101682.41
2023-07-10T07:29:54.816Z,101682.41
2023-07-10T07:32:22.919Z,101684.28
2023-07-10T07:34:52.626Z,101684.28
2023-07-10T07:37:20.652Z,101687.03
2023-07-10T07:39:48.609Z,101686.19
2023-07-10T07:42:16.526Z,101687.03
2023-07-10T07:44:44.463Z,101693.53
2023-07-10T07:47:12.485Z,101701.75
2023-07-10T07:49:40.584Z,101683.94
2023-07-10T07:52:10.351Z,101697.13
2023-07-10T07:54:39.483Z,101690.81
2023-07-10T07:57:08.744Z,101688.91
2023-07-10T07:59:36.692Z,101692.50
2023-07-10T08:02:04.764Z,101689.13
2023-07-10T08:04:33.073Z,101699.59
2023-07-10T08:07:01.215Z,101676.78
2023-07-10T08:09:30.681Z,101620.44
2023-07-10T08:11:58.582Z,101686.19
2023-07-10T08:14:30.373Z,101694.38
2023-07-10T08:16:58.395Z,101699.00
2023-07-10T08:19:26.394Z,101702.56
2023-07-10T08:21:56.210Z,101698.78
2023-07-10T08:24:24.278Z,101696.28
2023-07-10T08:26:53.588Z,101692.50
2023-07-10T08:29:26.075Z,101700.69
2023-07-10T08:31:54.825Z,101700.69
2023-07-10T08:34:23.272Z,101694.97
2023-07-10T08:36:53.212Z,101695.22
2023-07-10T08:39:21.154Z,101700.69
2023-07-10T08:41:53.099Z,101691.41
2023-07-10T08:44:21.465Z,101673.38
2023-07-10T08:46:49.587Z,101687.03
2023-07-10T08:49:23.508Z,101684.28
2023-07-10T08:51:55.094Z,101678.81
2023-07-10T08:54:23.354Z,101621.25
2023-07-10T08:56:56.542Z,101679.66
2023-07-10T08:59:36.783Z,101667.94
2023-07-10T09:02:04.966Z,101657.41
2023-07-10T09:04:33.041Z,101668.94
2023-07-10T09:07:01.816Z,101675.25
2023-07-10T09:09:39.273Z,101678.00
2023-07-10T09:12:12.437Z,101658.06
2023-07-10T09:14:43.676Z,101657.06
2023-07-10T09:17:19.580Z,101654.56
2023-07-10T09:19:49.544Z,101626.47
2023-07-10T09:22:17.523Z,101689.75
2023-07-10T09:24:45.751Z,101680.72
2023-07-10T09:27:15.931Z,101691.66
2023-07-10T09:29:45.485Z,101688.91
2023-07-10T09:32:14.720Z,101635.50
2023-07-10T09:34:44.422Z,101681.78
2023-07-10T09:37:13.246Z,101678.00
2023-07-10T09:39:41.251Z,101679.03
2023-07-10T09:42:16.487Z,101679.66
2023-07-10T09:44:49.402Z,101661.00
2023-07-10T09:47:18.176Z,101672.53
2023-07-10T09:49:47.653Z,101670.63
2023-07-10T09:52:19.669Z,101612.59
2023-07-10T09:54:47.617Z,101669.53
2023-07-10T09:57:17.761Z,101636.09
2023-07-10T09:59:49.552Z,101664.09
2023-07-10T10:02:20.545Z,101667.66
2023-07-10T10:04:53.446Z,101664.91
2023-07-10T10:07:23.837Z,101663.69
2023-07-10T10:10:21.976Z,101684.06
2023-07-10T10:12:53.887Z,101667.66
2023-07-10T10:15:26.032Z,101664.91
2023-07-10T10:17:54.057Z,101668.50
2023-07-10T10:20:26.167Z,101664.91
2023-07-10T10:22:55.627Z,101668.75
2023-07-10T10:25:26.679Z,101675.84
2023-07-10T10:27:58.832Z,101673.13
2023-07-10T10:30:33.833Z,101679.44
2023-07-10T10:33:11.412Z,101626.22
2023-07-10T10:35:49.957Z,101668.50
2023-07-10T10:38:40.007Z,101660.53
2023-07-10T10:41:21.074Z,101640.84
2023-07-10T10:43:55.193Z,101671.47
2023-07-10T10:46:28.726Z,101655.53
2023-07-10T10:49:04.763Z,101668.75
2023-07-10T10:51:38.841Z,101679.66
2023-07-10T10:54:19.651Z,101589.13
2023-07-10T10:56:58.862Z,101671.22
2023-07-10T10:59:34.678Z,101658.63
2023-07-10T11:02:11.145Z,101630.16
2023-07-10T11:04:40.541Z,101652.09
2023-07-10T11:07:09.600Z,101611.06
2023-07-10T11:09:39.404Z,101609.59
2023-07-10T11:12:09.216Z,101656.50
2023-07-10T11:14:38.893Z,101644.75
2023-07-10T11:17:07.367Z,101653.56
2023-07-10T11:19:35.959Z,101631.34
2023-07-10T11:22:12.537Z,101643.69
2023-07-10T11:24:40.776Z,101647.25
2023-07-10T11:27:16.214Z,101657.34
2023-07-10T11:29:46.358Z,101646.22
2023-07-10T11:32:18.734Z,101590.75
2023-07-10T11:35:01.010Z,101657.34
2023-07-10T11:37:42.918Z,101654.63
2023-07-10T11:40:46.142Z,101646.44
2023-07-10T11:44:07.298Z,101651.06
2023-07-10T11:46:36.653Z,101653.78
2023-07-10T11:49:20.778Z,101649.16
2023-07-10T11:52:21.700Z,101648.31
2023-07-10T11:55:13.974Z,101642.03
2023-07-10T11:57:41.936Z,101653.78
2023-07-10T12:00:28.735Z,101652.72
2023-07-10T12:02:58.953Z,101632.41
2023-07-10T12:05:28.479Z,101651.91
2023-07-10T12:08:03.980Z,101655.47
2023-07-10T12:10:34.485Z,101644.53
2023-07-10T12:13:02.414Z,101627.78
2023-07-10T12:15:30.767Z,101613.31
2023-07-10T12:18:00.224Z,101650.84
2023-07-10T12:20:29.841Z,101640.75
2023-07-10T12:23:01.187Z,101645.13
2023-07-10T12:25:29.477Z,101638.84
2023-07-10T12:30:29.742Z,101621.88
2023-07-10T12:32:59.418Z,101633.41
2023-07-10T12:35:31.649Z,101633.16
2023-07-10T12:38:00.495Z,101635.03
2023-07-10T12:40:28.570Z,101601.72
2023-07-10T12:42:57.398Z,101622.22
2023-07-10T12:45:35.179Z,101624.09
2023-07-10T12:48:10.456Z,101617.59
2023-07-10T12:50:42.639Z,101618.44
2023-07-10T12:53:17.150Z,101602.53
2023-07-10T12:55:52.842Z,101610.72
2023-07-10T12:58:31.170Z,101617.59
2023-07-10T13:01:02.793Z,101615.91
2023-07-10T13:03:33.693Z,101617.59
2023-07-10T13:06:06.281Z,101619.72
2023-07-10T13:08:35.207Z,101615.91
2023-07-10T13:11:03.915Z,101606.88
2023-07-10T13:13:34.582Z,101613.19
2023-07-10T13:16:03.280Z,101611.28
2023-07-10T13:18:39.172Z,101610.44
2023-07-10T13:21:07.703Z,101605.81
2023-07-10T13:23:36.882Z,101603.94
2023-07-10T13:26:09.251Z,101602.25
2023-07-10T13:28:49.242Z,101591.56
2023-07-10T13:31:19.482Z,101592.16
2023-07-10T13:33:48.856Z,101595.72
2023-07-10T13:36:19.479Z,101591.31
2023-07-10T13:38:47.571Z,101602.03
2023-07-10T13:41:16.276Z,101597.41
2023-07-10T13:43:44.257Z,101589.22
2023-07-10T13:46:20.628Z,101597.41
2023-07-10T13:48:50.620Z,101597.19
2023-07-10T13:51:18.782Z,101597.41
2023-07-10T13:53:47.079Z,101591.94
2023-07-10T13:56:16.232Z,101585.44
2023-07-10T13:58:44.241Z,101584.59
2023-07-10T14:01:12.929Z,101585.44
2023-07-10T14:03:43.385Z,101597.19
2023-07-10T14:06:31.025Z,101592.56
2023-07-10T14:09:04.926Z,101586.25
2023-07-10T14:11:32.892Z,101586.25
2023-07-10T14:14:02.343Z,101547.59
2023-07-10T14:16:31.450Z,101593.63
2023-07-10T14:18:59.465Z,101570.84
2023-07-10T14:21:29.024Z,101599.09
2023-07-10T14:23:57.348Z,101590.91
2023-07-10T14:26:26.023Z,101588.16
2023-07-10T14:28:55.076Z,101570.38
2023-07-10T14:31:23.115Z,101572.19
2023-07-10T14:33:51.383Z,101583.06
2023-07-10T14:36:20.240Z,101590.44
2023-07-10T14:38:49.611Z,101548.09
2023-07-10T14:41:18.884Z,101574.88
2023-07-10T14:43:47.458Z,101578.44
2023-07-10T14:46:16.914Z,101584.97
2023-07-10T14:48:45.561Z,101575.09
2023-07-10T14:51:13.727Z,101578.66
2023-07-10T14:53:41.744Z,101587.69
2023-07-10T14:56:14.914Z,101516.19
2023-07-10T14:58:43.070Z,101583.28
2023-07-10T15:01:15.816Z,101523.22
2023-07-10T15:03:44.296Z,101563.31
2023-07-10T15:06:23.169Z,101562.25
2023-07-10T15:08:52.673Z,101539.22
2023-07-10T15:11:22.295Z,101554.31
2023-07-10T15:13:50.758Z,101551.56
2023-07-10T15:16:20.274Z,101548.59
2023-07-10T15:18:48.290Z,101532.72
2023-07-10T15:21:16.890Z,101542.28
2023-07-10T15:23:45.377Z,101550.50
2023-07-10T15:26:13.612Z,101539.56
2023-07-10T15:28:42.960Z,101525.91
2023-07-10T15:31:12.350Z,101530.53
2023-07-10T15:33:41.384Z,101534.94
2023-07-10T15:36:10.822Z,101530.53
2023-07-10T15:38:38.826Z,101534.09
2023-07-10T15:41:07.202Z,101534.09
2023-07-10T15:43:36.281Z,101529.09
2023-07-10T15:46:05.599Z,101530.31
2023-07-10T15:48:33.523Z,101521.28
2023-07-10T15:51:01.525Z,101524.00
2023-07-10T15:53:31.143Z,101514.97
2023-07-10T15:55:59.357Z,101516.66
2023-07-10T15:58:27.312Z,101452.47
2023-07-10T16:00:56.405Z,101519.59
2023-07-10T16:03:28.185Z,101519.59
2023-07-10T16:05:56.945Z,101472.56
2023-07-10T16:08:25.711Z,101513.31
2023-07-10T16:10:54.931Z,101514.13
2023-07-10T16:13:23.963Z,101516.84
2023-07-10T16:15:51.962Z,101511.41
2023-07-10T16:18:24.896Z,101504.03
2023-07-10T16:20:54.559Z,101495.84
2023-07-10T16:23:25.798Z,101446.50
2023-07-10T16:25:53.758Z,101490.38
2023-07-10T16:28:25.271Z,101482.41
2023-07-10T16:30:53.442Z,101410.50
2023-07-10T16:33:22.359Z,101485.75
2023-07-10T16:35:50.809Z,101481.13
2023-07-10T16:38:21.804Z,101419.50
2023-07-10T16:40:52.319Z,101477.53
2023-07-10T16:43:24.507Z,101464.19
2023-07-10T16:45:53.748Z,101481.13
2023-07-10T16:48:23.397Z,101483.84
2023-07-10T16:50:52.289Z,101475.66
2023-07-10T16:53:26.660Z,101472.09
2023-07-10T16:55:56.218Z,101472.09
2023-07-10T16:58:28.260Z,101326.75
2023-07-10T17:00:56.543Z,101470.41
2023-07-10T17:03:27.472Z,101469.34
2023-07-10T17:05:55.591Z,101473.97
2023-07-10T17:08:25.789Z,101457.03
2023-07-10T17:10:54.522Z,101458.41
2023-07-10T17:13:23.726Z,101379.25
2023-07-10T17:15:53.529Z,101453.03
2023-07-10T17:18:22.378Z,101437.28
2023-07-10T17:20:50.998Z,101431.81
2023-07-10T17:23:20.660Z,101452.34
2023-07-10T17:25:51.038Z,101448.53
2023-07-10T17:28:22.922Z,101449.38
2023-07-10T17:30:51.589Z,101449.38
2023-07-10T17:33:40.550Z,101449.38
2023-07-10T17:36:09.857Z,101440.34
2023-07-10T17:38:38.135Z,101439.75
2023-07-10T17:41:09.444Z,101435.97
2023-07-10T17:43:38.658Z,101272.22
2023-07-10T17:46:07.100Z,101440.34
2023-07-10T17:48:35.141Z,101435.13
2023-07-10T17:51:07.707Z,101436.81
2023-07-10T17:53:37.929Z,101434.88
2023-07-10T17:56:07.556Z,101403.97
2023-07-10T17:58:35.512Z,101434.06
2023-07-10T18:01:04.820Z,101437.59
2023-07-10T18:03:34.359Z,101430.25
2023-07-10T18:06:02.448Z,101439.28
2023-07-10T18:08:31.278Z,101433.81
2023-07-10T18:11:01.324Z,101433.81
2023-07-10T18:13:34.664Z,101442.84
2023-07-10T18:16:02.651Z,101440.13
2023-07-10T18:18:30.652Z,101310.38
2023-07-10T18:20:58.673Z,101436.56
2023-07-10T18:23:28.038Z,101442.03
2023-07-10T18:25:57.037Z,101432.75
2023-07-10T18:28:27.370Z,101399.56
2023-07-10T18:30:57.349Z,101433.81
2023-07-10T18:33:26.431Z,101439.28
2023-07-10T18:35:55.752Z,101363.41
2023-07-10T18:38:24.152Z,101351.31
2023-07-10T18:40:53.394Z,101431.09
2023-07-10T18:43:22.597Z,101422.28
2023-07-10T18:45:53.578Z,101402.69
2023-07-10T18:48:30.532Z,101425.88
2023-07-10T18:51:03.447Z,101425.63
2023-07-10T18:53:32.839Z,101422.88
2023-07-10T18:56:00.861Z,101408.06
2023-07-10T18:58:29.533Z,101428.34
2023-07-10T19:00:57.871Z,101422.06
2023-07-10T19:03:27.773Z,101424.78
2023-07-10T19:05:55.869Z,101427.50
2023-07-10T19:08:25.213Z,101424.78
2023-07-10T19:10:53.243Z,101422.88
2023-07-10T19:13:22.506Z,101427.50
2023-07-10T19:15:51.645Z,101423.72
2023-07-10T19:18:25.612Z,101412.06
2023-07-10T19:20:55.033Z,101427.50
2023-07-10T19:23:24.298Z,101423.94
2023-07-10T19:25:52.434Z,101422.88
2023-07-10T19:28:20.566Z,101418.47
2023-07-10T19:30:52.243Z,101416.59
2023-07-10T19:33:24.098Z,101386.72
2023-07-10T19:35:52.169Z,101417.66
2023-07-10T19:38:22.723Z,101407.31
2023-07-10T19:40:50.970Z,101405.75
2023-07-10T19:43:18.942Z,101413.84
2023-07-10T19:45:47.295Z,101413.84
2023-07-10T19:48:15.978Z,101417.41
2023-07-10T19:50:44.173Z,101351.22
2023-07-10T19:53:17.648Z,101411.13
2023-07-10T19:55:48.123Z,101375.81
2023-07-10T19:58:16.922Z,101382.63
2023-07-10T20:00:45.310Z,101404.00
2023-07-10T20:03:14.891Z,101402.06
2023-07-10T20:05:42.948Z,101401.28
2023-07-10T20:08:16.262Z,101400.44
2023-07-10T20:10:44.566Z,101402.06
2023-07-10T20:13:17.512Z,101292.63
2023-07-10T20:15:46.176Z,101395.81
2023-07-10T20:18:23.189Z,101391.25
2023-07-10T20:20:51.472Z,101402.31
2023-07-10T20:23:21.185Z,101411.38
2023-07-10T20:25:52.339Z,101383.16
2023-07-10T20:28:23.129Z,101387.31
2023-07-10T20:30:52.234Z,101397.69
2023-07-10T20:33:21.393Z,101362.00
2023-07-10T20:35:49.499Z,101400.44
2023-07-10T20:38:18.620Z,101381.91
2023-07-10T20:40:47.149Z,101397.69
2023-07-10T20:43:16.844Z,101403.16
2023-07-10T20:45:47.951Z,101408.63
2023-07-10T20:48:21.920Z,101408.38
2023-07-10T20:50:51.568Z,101400.44
2023-07-10T20:53:19.964Z,101402.06
2023-07-10T20:55:49.571Z,101334.00
2023-07-10T20:58:20.079Z,101394.13
2023-07-10T21:00:49.696Z,101399.34
2023-07-10T21:03:19.025Z,101397.69
2023-07-10T21:05:47.700Z,101387.59
2023-07-10T21:08:18.701Z,101385.94
2023-07-10T21:10:46.746Z,101381.31
2023-07-10T21:13:15.625Z,101347.50
2023-07-10T21:15:43.676Z,101378.56
2023-07-10T21:18:14.336Z,101373.09
2023-07-10T21:20:42.725Z,101371.44
2023-07-10T21:23:26.364Z,101337.78
2023-07-10T21:25:54.898Z,101375.00
2023-07-10T21:28:24.285Z,101360.50
2023-07-10T21:30:52.620Z,101357.78
2023-07-10T21:33:23.355Z,101359.66
2023-07-10T21:35:53.270Z,101363.22
2023-07-10T21:38:21.250Z,101357.78
2023-07-10T21:40:49.520Z,101362.41
2023-07-10T21:43:19.316Z,101320.78
2023-07-10T21:45:47.441Z,101360.50
2023-07-10T21:48:21.361Z,101298.47
2023-07-10T21:50:51.782Z,101353.13
2023-07-10T21:53:20.494Z,101363.44
2023-07-10T21:55:48.513Z,101303.47
2023-07-10T21:58:18.813Z,101363.22
2023-07-10T22:00:46.979Z,101353.13
2023-07-10T22:03:24.742Z,101344.31
2023-07-10T22:05:54.822Z,101350.41
2023-07-10T22:08:22.840Z,101350.63
2023-07-10T22:10:51.698Z,101347.69
2023-07-10T22:13:21.922Z,101349.56
2023-07-10T22:15:50.984Z,101342.28
2023-07-10T22:18:20.012Z,101326.03
2023-07-10T22:20:48.933Z,101347.06
2023-07-10T22:23:19.460Z,101284.91
2023-07-10T22:25:48.219Z,101352.31
2023-07-10T22:28:17.282Z,101352.31
2023-07-10T22:30:46.647Z,101311.00
2023-07-10T22:33:15.085Z,101353.13
2023-07-10T22:35:43.196Z,101345.16
2023-07-10T22:38:12.287Z,101347.91
2023-07-10T22:40:41.702Z,101348.72
2023-07-10T22:43:11.487Z,101344.09
2023-07-10T22:45:39.624Z,101333.38
2023-07-10T22:48:14.941Z,101335.91
2023-07-10T22:50:43.211Z,101335.06
2023-07-10T22:53:11.195Z,101334.22
2023-07-10T22:55:39.461Z,101332.56
2023-07-10T22:58:09.129Z,101330.06
2023-07-10T23:00:37.702Z,101338.03
2023-07-10T23:03:06.580Z,101338.84
2023-07-10T23:05:34.708Z,101341.59
2023-07-10T23:08:03.320Z,101332.56
2023-07-10T23:10:31.488Z,101328.75
2023-07-10T23:12:59.446Z,101310.41
2023-07-10T23:15:28.809Z,101326.25
2023-07-10T23:17:57.285Z,101326.88
2023-07-10T23:20:26.066Z,101321.63
2023-07-10T23:22:54.397Z,101323.31
2023-07-10T23:25:22.468Z,101310.94
2023-07-10T23:27:50.739Z,101312.38
2023-07-10T23:30:19.766Z,101315.31
2023-07-10T23:32:50.201Z,101319.72
2023-07-10T23:35:18.178Z,101313.44
2023-07-10T23:37:46.541Z,101318.06
2023-07-10T23:40:16.355Z,101309.63
2023-07-10T23:42:44.476Z,101284.97
2023-07-10T23:45:13.572Z,101303.34
2023-07-10T23:47:42.749Z,101291.56
2023-07-10T23:50:12.408Z,101288.84
2023-07-10T23:52:40.354Z,101292.63
2023-07-10T23:55:10.908Z,101287.78
2023-07-10T23:57:40.489Z,101286.09
